Time;durP1;ratioP1;P1;durP2;ratioP2;P2;SDS_P1;SDS_P2;PMS_P1;PMS_P2;Temp;Humidity;BMP_temperature;BMP_pressure;BME280_temperature;BME280_humidity;BME280_pressure;Samples;Min_cycle;Max_cycle;Signal;HPM_P1;HPM_P2
2022/01/04 00:01:01;;;;;;;3.47;1.90;;;12.90;99.90;;;12.17;100.00;99787.44;4150440;28;20026;-69
2022/01/04 00:03:02;;;;;;;4.60;2.15;;;12.90;99.90;;;12.18;100.00;99786.41;4156696;28;20104;-68
2022/01/04 00:05:04;;;;;;;5.65;2.53;;;12.90;99.90;;;12.12;100.00;99781.09;4159386;28;20033;-69
2022/01/04 00:07:05;;;;;;;3.17;1.90;;;12.90;99.90;;;12.04;100.00;99792.59;4148793;28;20120;-68
2022/01/04 00:09:07;;;;;;;3.05;2.30;;;12.90;99.90;;;12.07;100.00;99794.88;4155961;28;20041;-68
2022/01/04 00:11:20;;;;;;;3.92;2.10;;;12.80;99.90;;;12.03;100.00;99792.81;4156990;28;20029;-68
2022/01/04 00:13:23;;;;;;;5.20;2.92;;;12.80;99.90;;;12.11;100.00;99785.56;4150508;28;20030;-68
2022/01/04 00:15:24;;;;;;;3.00;2.00;;;12.80;99.90;;;12.00;100.00;99786.06;4158891;28;20057;-68
2022/01/04 00:17:25;;;;;;;4.00;1.70;;;12.80;99.90;;;12.05;100.00;99783.66;4154318;28;20407;-68
2022/01/04 00:19:26;;;;;;;3.60;1.83;;;12.70;99.90;;;12.00;100.00;99787.88;4161356;28;20061;-68
2022/01/04 00:21:27;;;;;;;3.58;1.83;;;12.70;99.90;;;12.09;100.00;99782.28;4154761;28;20546;-69
2022/01/04 00:23:28;;;;;;;4.70;2.35;;;12.70;99.90;;;12.11;100.00;99780.28;4154181;28;20040;-68
2022/01/04 00:25:29;;;;;;;3.15;2.25;;;12.70;99.90;;;12.06;100.00;99782.69;4166933;28;20034;-68
2022/01/04 00:27:30;;;;;;;2.55;1.67;;;12.70;99.90;;;11.92;100.00;99777.41;4154747;28;20032;-68
2022/01/04 00:29:31;;;;;;;3.70;1.50;;;12.70;99.90;;;11.84;100.00;99769.63;4164722;28;20034;-68
2022/01/04 00:31:32;;;;;;;1.85;1.30;;;12.70;99.90;;;11.78;100.00;99787.03;4175600;28;20030;-68
2022/01/04 00:33:33;;;;;;;1.00;0.90;;;12.60;99.90;;;11.56;100.00;99793.25;4150515;28;20038;-68
2022/01/04 00:35:35;;;;;;;1.10;0.80;;;12.40;99.90;;;11.35;100.00;99806.41;4149188;28;20053;-68
2022/01/04 00:37:36;;;;;;;1.77;0.90;;;12.40;99.90;;;11.04;100.00;99815.34;4148789;28;20030;-68
2022/01/04 00:39:37;;;;;;;0.80;0.80;;;12.10;99.90;;;10.87;100.00;99820.97;4149253;28;20026;-68
2022/01/04 00:41:38;;;;;;;1.48;0.70;;;11.90;99.90;;;10.80;100.00;99812.94;4165120;28;20107;-68
2022/01/04 00:43:39;;;;;;;1.27;0.95;;;11.80;99.90;;;10.72;100.00;99815.66;4162218;28;20025;-68
2022/01/04 00:45:40;;;;;;;0.88;0.80;;;11.70;99.90;;;10.63;100.00;99816.75;4151718;28;20556;-68
2022/01/04 00:49:54;;;;;;;0.95;0.80;;;11.30;99.90;;;10.08;100.00;99816.97;4153685;28;20096;-69
2022/01/04 00:51:55;;;;;;;0.80;0.80;;;11.20;99.90;;;10.09;100.00;99817.81;4152232;28;20045;-69
2022/01/04 00:53:56;;;;;;;0.95;0.85;;;11.10;99.90;;;9.93;100.00;99814.28;4179571;28;20032;-68
2022/01/04 00:55:57;;;;;;;1.20;1.00;;;11.00;99.90;;;10.03;100.00;99828.03;4170854;28;20088;-69
2022/01/04 00:57:58;;;;;;;1.15;1.05;;;10.90;99.90;;;9.85;100.00;99814.34;4155882;28;20564;-69
2022/01/04 00:59:59;;;;;;;1.05;0.90;;;10.80;99.90;;;9.83;100.00;99816.31;4169720;28;20076;-68
2022/01/04 01:02:00;;;;;;;2.58;1.10;;;10.80;99.90;;;9.83;100.00;99818.94;4154522;28;20026;-68
2022/01/04 01:04:03;;;;;;;2.38;1.00;;;10.70;99.90;;;9.76;100.00;99825.09;4156141;28;20075;-68
2022/01/04 01:06:04;;;;;;;1.63;1.08;;;10.60;99.90;;;9.64;100.00;99835.19;4168099;28;20055;-68
2022/01/04 01:08:05;;;;;;;1.42;1.13;;;10.70;99.90;;;9.55;100.00;99830.13;4158038;28;20386;-68
2022/01/04 01:12:15;;;;;;;1.25;1.00;;;10.50;99.90;;;9.68;100.00;99830.38;4157362;28;20482;-68
2022/01/04 01:14:16;;;;;;;0.95;0.85;;;10.50;99.90;;;9.81;100.00;99820.94;4168026;28;20065;-69
2022/01/04 01:16:17;;;;;;;1.58;1.13;;;10.50;99.90;;;9.67;100.00;99813.78;4169266;28;20036;-68
2022/01/04 01:18:18;;;;;;;1.08;0.90;;;10.50;99.90;;;9.80;100.00;99829.00;4169178;28;20056;-68
2022/01/04 01:20:20;;;;;;;1.55;1.10;;;10.50;99.90;;;9.64;100.00;99827.28;4174742;28;20104;-68
2022/01/04 01:22:20;;;;;;;1.60;1.23;;;10.50;99.90;;;9.56;100.00;99823.88;4164364;28;20515;-68
2022/01/04 01:24:21;;;;;;;0.80;0.80;;;10.40;99.90;;;9.38;100.00;99818.84;4176600;28;20025;-68
2022/01/04 01:26:22;;;;;;;1.00;0.90;;;10.40;99.90;;;9.33;100.00;99824.63;4155690;28;20025;-68
2022/01/04 01:28:24;;;;;;;1.40;0.95;;;10.30;99.90;;;9.40;100.00;99832.66;4164020;28;20036;-69
2022/01/04 01:30:26;;;;;;;1.50;1.38;;;10.30;99.90;;;9.35;100.00;99827.91;4161058;28;20021;-68
2022/01/04 01:32:27;;;;;;;1.00;0.90;;;10.20;99.90;;;9.35;100.00;99835.78;4156139;28;20072;-68
2022/01/04 01:34:28;;;;;;;1.10;1.00;;;10.20;99.90;;;9.33;100.00;99844.84;4167370;28;20025;-68
2022/01/04 01:36:31;;;;;;;2.55;1.52;;;10.20;99.90;;;9.36;100.00;99839.25;4151293;28;20048;-68
2022/01/04 01:38:32;;;;;;;1.20;0.95;;;10.20;99.90;;;9.42;100.00;99831.50;4168660;28;20049;-68
2022/01/04 01:40:33;;;;;;;1.00;0.90;;;10.20;99.90;;;9.46;100.00;99839.88;4169210;28;20017;-68
2022/01/04 01:42:33;;;;;;;1.05;0.95;;;10.20;99.90;;;9.50;100.00;99835.91;4168927;28;20089;-68
2022/01/04 01:44:36;;;;;;;1.00;0.90;;;10.20;99.90;;;9.50;100.00;99835.91;4168846;28;20030;-68
2022/01/04 01:46:37;;;;;;;1.55;0.90;;;10.20;99.90;;;9.53;100.00;99832.13;4158826;28;20525;-68
2022/01/04 01:48:38;;;;;;;3.28;1.10;;;10.20;99.90;;;9.36;100.00;99832.19;4151068;28;20032;-68
2022/01/04 01:50:39;;;;;;;2.63;1.00;;;10.20;99.90;;;9.50;100.00;99840.38;4151194;28;20033;-68
2022/01/04 01:52:42;;;;;;;2.88;0.90;;;10.30;99.90;;;9.41;100.00;99839.53;4154672;28;20059;-68
2022/01/04 01:54:43;;;;;;;1.42;1.08;;;10.20;99.90;;;9.47;100.00;99848.59;4170365;28;20037;-68
2022/01/04 01:56:44;;;;;;;1.10;0.98;;;10.20;99.90;;;9.46;100.00;99855.69;4162201;28;20026;-68
2022/01/04 01:58:45;;;;;;;3.20;1.20;;;10.10;99.90;;;9.59;100.00;99853.28;4152087;28;20460;-68
2022/01/04 02:00:46;;;;;;;1.27;1.00;;;10.20;99.90;;;9.53;100.00;99856.63;4154744;28;20424;-68
2022/01/04 02:02:47;;;;;;;1.33;0.90;;;10.30;99.90;;;9.51;100.00;99850.72;4167428;28;20026;-68
2022/01/04 02:04:48;;;;;;;1.17;0.90;;;10.30;99.90;;;9.48;100.00;99866.03;4167430;28;20558;-68
2022/01/04 02:06:50;;;;;;;1.10;0.90;;;10.30;99.90;;;9.38;100.00;99853.88;4167074;28;20148;-68
2022/01/04 02:08:51;;;;;;;1.98;1.05;;;10.20;99.90;;;9.41;100.00;99850.06;4168186;28;20049;-68
2022/01/04 02:10:53;;;;;;;0.90;0.88;;;10.20;99.90;;;9.40;100.00;99858.97;4160039;28;20033;-68
2022/01/04 02:12:54;;;;;;;1.83;0.90;;;10.20;99.90;;;9.53;100.00;99863.72;4150894;28;20037;-68
2022/01/04 02:14:56;;;;;;;1.10;0.90;;;10.20;99.90;;;9.30;100.00;99859.16;4164724;28;20340;-68
2022/01/04 02:16:57;;;;;;;2.35;1.17;;;10.20;99.90;;;9.31;100.00;99845.03;4163013;28;20022;-68
2022/01/04 02:19:06;;;;;;;1.98;0.90;;;10.10;99.90;;;9.32;100.00;99843.19;4165266;28;20417;-68
2022/01/04 02:21:07;;;;;;;2.55;1.33;;;10.20;99.90;;;9.25;100.00;99850.97;4162607;28;20033;-68
2022/01/04 02:23:08;;;;;;;1.20;1.00;;;10.20;99.90;;;9.43;100.00;99867.38;4153248;28;20485;-68
2022/01/04 02:25:10;;;;;;;1.08;0.95;;;10.10;99.90;;;9.20;100.00;99855.91;4150591;28;20461;-69
2022/01/04 02:27:14;;;;;;;0.98;0.90;;;10.10;99.90;;;9.25;100.00;99864.13;4159919;28;20061;-68
2022/01/04 02:29:15;;;;;;;0.93;0.90;;;10.10;99.90;;;9.25;100.00;99860.69;4155297;28;20018;-69
2022/01/04 02:31:16;;;;;;;1.48;0.98;;;10.10;99.90;;;9.32;100.00;99854.56;4166685;28;20075;-68
2022/01/04 02:33:17;;;;;;;0.88;0.88;;;10.10;99.90;;;9.28;100.00;99861.16;4168008;28;20063;-68
2022/01/04 02:35:25;;;;;;;1.30;0.90;;;10.00;99.90;;;9.27;100.00;99871.84;4167959;28;20029;-68
2022/01/04 02:37:28;;;;;;;1.25;1.15;;;10.00;99.90;;;9.22;100.00;99879.44;4167683;28;20095;-68
2022/01/04 02:39:30;;;;;;;0.82;0.80;;;10.10;99.90;;;9.37;100.00;99883.84;4150739;28;20034;-68
2022/01/04 02:41:31;;;;;;;1.30;0.90;;;10.10;99.90;;;9.14;100.00;99889.97;4158001;28;20036;-68
2022/01/04 02:43:32;;;;;;;0.82;0.82;;;10.10;99.90;;;9.19;100.00;99888.50;4157094;28;20022;-68
2022/01/04 02:45:33;;;;;;;1.20;1.10;;;9.90;99.90;;;9.28;100.00;99899.81;4150414;28;20034;-68
2022/01/04 02:47:35;;;;;;;1.20;1.10;;;10.00;99.90;;;9.19;100.00;99896.38;4165906;28;20049;-68
2022/01/04 02:49:36;;;;;;;1.08;0.90;;;10.00;99.90;;;9.30;100.00;99889.94;4151509;28;20042;-68
2022/01/04 02:51:37;;;;;;;2.33;1.00;;;10.00;99.90;;;9.28;100.00;99889.28;4158621;28;20075;-68
2022/01/04 02:53:39;;;;;;;1.20;1.10;;;10.00;99.90;;;9.18;100.00;99886.84;4166378;28;20404;-68
2022/01/04 02:55:40;;;;;;;1.00;0.90;;;10.00;99.90;;;9.29;100.00;99896.16;4168830;28;20052;-68
2022/01/04 02:57:42;;;;;;;1.13;0.93;;;10.00;99.90;;;9.22;100.00;99908.38;4151813;28;20033;-68
2022/01/04 02:59:43;;;;;;;1.67;0.93;;;10.00;99.90;;;9.27;100.00;99917.41;4158161;28;20089;-68
2022/01/04 03:01:44;;;;;;;1.52;0.80;;;10.00;99.90;;;9.32;100.00;99928.25;4163211;28;20029;-68
2022/01/04 03:03:44;;;;;;;1.35;1.25;;;9.90;99.90;;;9.27;100.00;99921.84;4151298;28;20433;-68
2022/01/04 03:05:45;;;;;;;0.95;0.90;;;10.00;99.90;;;9.23;100.00;99920.53;4143811;28;20060;-68
2022/01/04 03:07:46;;;;;;;1.17;1.00;;;10.00;99.90;;;9.19;100.00;99927.97;4167164;28;20025;-68
2022/01/04 03:09:47;;;;;;;1.77;0.90;;;10.00;99.90;;;9.03;100.00;99929.75;4151282;28;20029;-68
2022/01/04 03:11:48;;;;;;;1.10;1.00;;;9.90;99.90;;;9.07;100.00;99923.19;4166219;28;20119;-68
2022/01/04 03:13:49;;;;;;;1.10;1.00;;;9.90;99.90;;;9.18;100.00;99920.22;4161484;28;20037;-68
2022/01/04 03:15:50;;;;;;;1.23;1.00;;;9.90;99.90;;;9.12;100.00;99918.25;4151017;28;20076;-68
2022/01/04 03:17:51;;;;;;;1.52;1.00;;;9.90;99.90;;;9.17;100.00;99929.13;4151205;28;20034;-68
2022/01/04 03:19:51;;;;;;;1.10;1.00;;;9.90;99.90;;;9.20;100.00;99929.56;4151132;28;20060;-68
2022/01/04 03:21:52;;;;;;;1.20;1.10;;;9.90;99.90;;;9.27;100.00;99917.41;4153868;28;20022;-68
2022/01/04 03:23:53;;;;;;;1.55;1.25;;;10.00;99.90;;;9.24;100.00;99924.81;4150920;28;20100;-68
2022/01/04 03:25:54;;;;;;;1.42;1.13;;;10.00;99.90;;;9.23;100.00;99925.78;4151052;28;20378;-68
2022/01/04 03:27:55;;;;;;;1.55;0.93;;;9.90;99.90;;;9.37;100.00;99925.13;4165377;28;20060;-68
2022/01/04 03:29:56;;;;;;;1.15;0.90;;;10.00;99.90;;;9.38;100.00;99932.84;4167347;28;20882;-68
2022/01/04 03:31:58;;;;;;;1.25;1.00;;;10.00;99.90;;;9.47;100.00;99935.47;4158732;28;20030;-68
2022/01/04 03:33:59;;;;;;;1.70;1.10;;;10.00;99.90;;;9.36;100.00;99934.81;4149838;28;20088;-68
2022/01/04 03:36:03;;;;;;;1.83;1.48;;;10.00;99.90;;;9.24;100.00;99938.78;4149522;28;20061;-68
2022/01/04 03:38:04;;;;;;;1.10;1.00;;;9.90;99.90;;;9.39;100.00;99941.56;4150829;28;20065;-68
2022/01/04 03:40:06;;;;;;;1.10;1.00;;;10.10;99.90;;;9.43;100.00;99937.63;4150986;28;20030;-68
2022/01/04 03:42:08;;;;;;;1.90;1.10;;;10.00;99.90;;;9.04;100.00;99936.69;4161109;28;20029;-68
2022/01/04 03:44:15;;;;;;;1.85;1.10;;;9.90;99.90;;;9.11;100.00;99924.53;4165997;28;20467;-68
2022/01/04 03:46:16;;;;;;;1.30;1.20;;;9.90;99.90;;;9.25;100.00;99927.28;4166030;28;20118;-69
2022/01/04 03:48:18;;;;;;;1.20;1.10;;;9.90;99.90;;;9.30;100.00;99924.97;4158388;28;20038;-68
2022/01/04 03:50:19;;;;;;;1.38;1.27;;;10.00;99.90;;;9.30;100.00;99921.50;4161812;28;20022;-69
2022/01/04 03:52:20;;;;;;;1.30;1.20;;;10.00;99.90;;;9.36;100.00;99926.94;4166944;28;20072;-68
2022/01/04 03:54:22;;;;;;;4.25;1.20;;;10.00;99.90;;;9.42;100.00;99935.97;4167118;28;20040;-68
2022/01/04 03:56:23;;;;;;;1.60;1.20;;;10.00;99.90;;;9.33;100.00;99926.44;4149545;28;20022;-68
2022/01/04 03:58:24;;;;;;;2.65;1.20;;;10.00;99.90;;;9.29;100.00;99938.28;4154150;28;20181;-68
2022/01/04 04:00:26;;;;;;;1.40;1.23;;;10.00;99.90;;;9.31;100.00;99937.16;4163501;28;20104;-68
2022/01/04 04:02:26;;;;;;;1.40;1.30;;;10.10;99.90;;;9.27;100.00;99937.63;4166034;28;20552;-68
2022/01/04 04:04:27;;;;;;;1.30;1.20;;;10.00;99.90;;;9.34;100.00;99936.00;4174405;28;20040;-68
2022/01/04 04:06:28;;;;;;;3.90;1.40;;;10.00;99.90;;;9.41;100.00;99936.94;4160952;28;20049;-68
2022/01/04 04:08:29;;;;;;;2.17;1.70;;;10.00;99.90;;;9.49;100.00;99942.22;4162945;28;20028;-68
2022/01/04 04:10:30;;;;;;;2.05;1.85;;;10.00;99.90;;;9.35;100.00;99941.06;4167047;28;20108;-68
2022/01/04 04:12:31;;;;;;;1.77;1.33;;;10.00;99.90;;;9.37;100.00;99933.03;4167135;28;20500;-68
2022/01/04 04:14:32;;;;;;;2.00;1.80;;;10.00;99.90;;;9.48;100.00;99930.03;4166959;28;20025;-68
2022/01/04 04:16:33;;;;;;;1.60;1.50;;;10.00;99.90;;;9.52;100.00;99927.88;4152296;28;20022;-68
2022/01/04 04:18:34;;;;;;;1.98;1.70;;;10.10;99.90;;;9.41;100.00;99934.31;4149438;28;20018;-68
2022/01/04 04:20:39;;;;;;;3.80;1.90;;;10.10;99.90;;;9.40;100.00;99927.41;4150726;28;20710;-68
2022/01/04 04:22:41;;;;;;;1.80;1.70;;;10.10;99.90;;;9.42;100.00;99922.81;4155744;28;20033;-68
2022/01/04 04:24:42;;;;;;;4.22;1.73;;;10.10;99.90;;;9.43;100.00;99922.66;4154563;28;20022;-68
2022/01/04 04:26:43;;;;;;;1.73;1.42;;;10.00;99.90;;;9.46;100.00;99921.47;4170271;28;20108;-68
2022/01/04 04:28:44;;;;;;;3.00;2.15;;;10.00;99.90;;;9.49;100.00;99915.88;4170239;28;20112;-68
2022/01/04 04:30:45;;;;;;;2.55;1.50;;;10.10;99.90;;;9.50;100.00;99917.50;4170157;28;20025;-68
2022/01/04 04:32:47;;;;;;;1.73;1.50;;;10.10;99.90;;;9.48;100.00;99921.31;4154991;28;20061;-68
2022/01/04 04:34:48;;;;;;;3.38;1.77;;;10.10;99.90;;;9.34;100.00;99928.09;4157667;28;20041;-68
2022/01/04 04:36:49;;;;;;;2.63;1.90;;;10.00;99.90;;;9.34;100.00;99943.88;4161582;28;20072;-68
2022/01/04 04:38:50;;;;;;;1.70;1.60;;;10.10;99.90;;;9.39;100.00;99937.13;4163980;28;20108;-68
2022/01/04 04:40:51;;;;;;;1.63;1.52;;;10.10;99.90;;;9.49;100.00;99941.38;4154778;28;20539;-68
2022/01/04 04:42:52;;;;;;;1.80;1.58;;;10.00;99.90;;;9.52;100.00;99926.06;4157594;28;20025;-68
2022/01/04 04:44:53;;;;;;;2.20;2.00;;;10.10;99.90;;;9.50;100.00;99922.75;4177122;28;20532;-68
2022/01/04 04:46:54;;;;;;;2.40;2.20;;;10.10;99.90;;;9.43;100.00;99911.28;4186155;28;20033;-68
2022/01/04 04:48:55;;;;;;;3.35;2.50;;;10.10;99.90;;;9.52;100.00;99920.81;4158514;28;20153;-68
2022/01/04 04:50:56;;;;;;;3.47;3.10;;;10.10;99.90;;;9.47;100.00;99927.56;4153411;28;20409;-68
2022/01/04 04:52:57;;;;;;;3.22;2.67;;;10.10;99.90;;;9.46;100.00;99932.00;4157944;28;20052;-69
2022/01/04 04:54:58;;;;;;;5.03;2.95;;;10.10;99.90;;;9.48;100.00;99924.75;4170336;28;20029;-68
2022/01/04 04:56:59;;;;;;;5.10;3.25;;;10.00;99.90;;;9.50;100.00;99921.97;4159613;28;20030;-68
2022/01/04 04:59:00;;;;;;;6.10;2.78;;;10.10;99.90;;;9.49;100.00;99931.69;4156756;28;20550;-68
2022/01/04 05:01:01;;;;;;;4.82;2.40;;;10.00;99.90;;;9.55;100.00;99920.47;4153165;28;20057;-68
2022/01/04 05:03:02;;;;;;;2.90;2.30;;;10.00;99.90;;;9.61;100.00;99917.16;4171216;28;20021;-68
2022/01/04 05:05:04;;;;;;;5.55;3.13;;;10.10;99.90;;;9.54;100.00;99903.03;4167755;28;20516;-68
2022/01/04 05:07:05;;;;;;;3.97;2.55;;;10.10;99.90;;;9.51;100.00;99913.88;4153624;28;20061;-68
2022/01/04 05:09:06;;;;;;;4.32;2.70;;;10.10;99.90;;;9.55;100.00;99909.94;4135766;28;20034;-68
2022/01/04 05:11:07;;;;;;;3.08;2.78;;;10.10;99.90;;;9.51;100.00;99902.53;4153186;28;20117;-68
2022/01/04 05:13:08;;;;;;;2.88;2.47;;;10.10;99.90;;;9.51;100.00;99900.72;4151948;28;20034;-68
2022/01/04 05:15:09;;;;;;;2.70;2.50;;;10.10;99.90;;;9.47;100.00;99893.34;4135507;28;20027;-68
2022/01/04 05:17:11;;;;;;;3.85;2.20;;;10.10;99.90;;;9.42;100.00;99901.75;4157475;28;20097;-68
2022/01/04 05:19:12;;;;;;;3.55;2.58;;;10.10;99.90;;;9.53;100.00;99896.09;4160477;28;20022;-68
2022/01/04 05:21:13;;;;;;;3.25;2.35;;;10.00;99.90;;;9.48;100.00;99913.41;4154777;28;20492;-68
2022/01/04 05:23:14;;;;;;;5.13;2.80;;;10.10;99.90;;;9.46;100.00;99908.31;4152404;28;20112;-68
2022/01/04 05:25:15;;;;;;;2.50;2.30;;;10.00;99.90;;;9.46;100.00;99905.69;4157442;28;20039;-68
2022/01/04 05:27:15;;;;;;;3.40;2.10;;;10.10;99.90;;;9.49;100.00;99926.41;4169204;28;20460;-68
2022/01/04 05:29:16;;;;;;;4.57;2.05;;;10.10;99.90;;;9.56;100.00;99930.00;4169355;28;20063;-68
2022/01/04 05:31:17;;;;;;;2.53;2.03;;;10.00;99.90;;;9.50;100.00;99924.59;4152210;28;20116;-68
2022/01/04 05:33:18;;;;;;;3.65;2.30;;;10.00;99.90;;;9.40;100.00;99937.94;4157671;28;20045;-68
2022/01/04 05:35:19;;;;;;;1.83;1.73;;;10.00;99.90;;;9.44;100.00;99949.75;4169461;28;20026;-68
2022/01/04 05:37:20;;;;;;;2.20;1.98;;;10.00;99.90;;;9.46;100.00;99958.34;4168924;28;20025;-68
2022/01/04 05:39:21;;;;;;;2.28;1.90;;;10.00;99.90;;;9.58;100.00;99953.53;4169217;28;20053;-68
2022/01/04 05:41:22;;;;;;;3.40;1.60;;;9.90;99.90;;;9.55;100.00;99952.06;4174415;28;20025;-68
2022/01/04 05:43:23;;;;;;;2.10;1.90;;;9.90;99.90;;;9.30;100.00;99950.47;4168795;28;20442;-68
2022/01/04 05:45:24;;;;;;;3.83;2.38;;;10.00;99.90;;;9.51;100.00;99966.53;4163382;28;20037;-68
2022/01/04 05:47:25;;;;;;;2.13;1.92;;;10.00;99.90;;;9.50;100.00;99970.16;4153703;28;20528;-68
2022/01/04 05:49:26;;;;;;;1.90;1.80;;;9.90;99.90;;;9.58;100.00;99979.88;4152670;28;20482;-68
2022/01/04 05:51:27;;;;;;;5.00;2.60;;;10.10;99.90;;;9.57;100.00;99978.22;4152559;28;20030;-68
2022/01/04 05:53:30;;;;;;;3.50;2.10;;;10.00;99.90;;;9.41;100.00;99964.09;4152326;28;20053;-68
2022/01/04 05:55:31;;;;;;;3.53;2.00;;;10.00;99.90;;;9.44;100.00;99979.53;4174642;28;20021;-68
2022/01/04 05:57:32;;;;;;;5.55;2.53;;;10.00;99.90;;;9.42;100.00;99973.63;4151242;28;20026;-68
2022/01/04 05:59:33;;;;;;;2.58;2.08;;;10.00;99.90;;;9.42;100.00;99975.44;4169022;28;20489;-68
2022/01/04 06:01:34;;;;;;;2.40;2.20;;;10.00;99.90;;;9.43;100.00;99974.47;4168751;28;20040;-68
2022/01/04 06:03:35;;;;;;;2.85;2.42;;;9.90;99.90;;;9.24;100.00;99978.25;4180385;28;20035;-68
2022/01/04 06:05:36;;;;;;;5.93;2.97;;;10.00;99.90;;;9.19;100.00;99975.31;4155663;28;20085;-68
2022/01/04 06:07:37;;;;;;;3.60;2.65;;;9.90;99.90;;;9.33;100.00;99979.06;4160134;28;20036;-68
2022/01/04 06:09:44;;;;;;;5.65;3.00;;;9.90;99.90;;;9.27;100.00;99974.47;4162397;28;20029;-69
2022/01/04 06:16:18;;;;;;;4.05;2.95;;;9.90;99.90;;;9.06;100.00;99984.69;4199165;28;20451;-68
2022/01/04 06:18:19;;;;;;;4.03;2.70;;;9.90;99.90;;;9.16;100.00;99990.59;4152811;28;20045;-68
2022/01/04 06:20:23;;;;;;;3.58;2.95;;;9.90;99.90;;;9.19;100.00;100000.81;4152010;28;20065;-68
2022/01/04 06:22:26;;;;;;;5.82;2.53;;;9.90;99.90;;;9.21;100.00;99996.19;4153063;28;20053;-68
2022/01/04 06:24:27;;;;;;;6.78;2.90;;;9.90;99.90;;;9.08;100.00;99995.88;4150868;28;20061;-68
2022/01/04 06:26:28;;;;;;;4.53;2.83;;;9.90;99.90;;;9.19;100.00;99998.16;4167525;28;20044;-68
2022/01/04 06:28:29;;;;;;;6.20;2.70;;;9.90;99.90;;;9.08;100.00;99993.25;4168270;28;20035;-68
2022/01/04 06:30:30;;;;;;;4.45;2.28;;;9.90;99.90;;;9.03;100.00;99999.00;4157691;28;20033;-69
2022/01/04 06:32:31;;;;;;;2.90;2.53;;;9.80;99.90;;;9.15;100.00;100005.56;4164087;28;20033;-69
2022/01/04 06:34:34;;;;;;;4.10;2.35;;;9.90;99.90;;;9.15;100.00;100002.13;4178907;28;20393;-68
2022/01/04 06:36:35;;;;;;;7.15;2.70;;;9.80;99.90;;;9.23;100.00;100002.09;4151533;28;20030;-68
2022/01/04 06:38:36;;;;;;;5.13;2.70;;;9.90;99.90;;;9.21;100.00;100001.44;4159235;28;20083;-69
2022/01/04 06:40:37;;;;;;;3.75;2.65;;;9.80;99.90;;;9.19;100.00;100013.97;4155545;28;20068;-69
2022/01/04 06:42:38;;;;;;;4.25;2.58;;;9.80;99.90;;;9.14;100.00;100011.81;4167098;28;20044;-68
2022/01/04 06:44:41;;;;;;;6.68;2.65;;;9.90;99.90;;;9.18;100.00;99996.53;4160663;28;20025;-69
2022/01/04 06:46:45;;;;;;;5.47;2.60;;;9.90;99.90;;;9.08;100.00;99993.25;4170911;28;20404;-69
2022/01/04 06:48:46;;;;;;;5.60;2.40;;;9.80;99.90;;;9.06;100.00;99982.06;4157583;28;20022;-68
2022/01/04 06:50:47;;;;;;;6.50;3.38;;;9.80;99.90;;;9.03;100.00;99974.50;4151453;28;20101;-68
2022/01/04 06:52:48;;;;;;;3.63;2.47;;;9.80;99.90;;;9.12;100.00;99969.06;4151186;28;20029;-68
2022/01/04 06:54:49;;;;;;;5.35;3.00;;;9.80;99.90;;;9.14;100.00;99980.22;4163331;28;20071;-69
2022/01/04 06:56:51;;;;;;;5.85;2.80;;;9.80;99.90;;;9.06;100.00;99985.50;4160989;28;20537;-68
2022/01/04 06:58:51;;;;;;;7.07;2.85;;;9.80;99.90;;;9.11;100.00;99990.28;4151213;28;20057;-68
2022/01/04 07:00:53;;;;;;;5.25;2.30;;;9.80;99.90;;;9.15;100.00;99991.59;4151447;28;20477;-68
2022/01/04 07:02:53;;;;;;;5.03;2.95;;;9.70;99.90;;;9.18;100.00;99993.88;4151552;28;20449;-69
2022/01/04 07:04:54;;;;;;;8.30;2.85;;;9.70;99.90;;;8.98;100.00;99987.31;4151436;28;20060;-69
2022/01/04 07:06:55;;;;;;;4.35;2.90;;;9.70;99.90;;;8.89;100.00;99989.97;4158677;28;20100;-69
2022/01/04 07:08:56;;;;;;;6.25;2.70;;;9.60;99.90;;;8.91;100.00;100002.94;4174909;28;20489;-69
2022/01/04 07:10:57;;;;;;;9.40;2.95;;;9.60;99.90;;;8.89;100.00;100008.38;4159203;28;20072;-69
2022/01/04 07:12:58;;;;;;;6.68;2.90;;;9.60;99.90;;;8.89;100.00;100013.63;4167494;28;20033;-69
2022/01/04 07:14:59;;;;;;;6.55;2.67;;;9.60;99.90;;;9.00;100.00;99996.69;4168891;28;20068;-69
2022/01/04 07:17:00;;;;;;;6.97;2.88;;;9.50;99.90;;;9.07;100.00;100010.84;4174170;28;20033;-69
2022/01/04 07:19:01;;;;;;;11.10;2.88;;;9.60;99.90;;;9.08;100.00;100016.94;4151093;28;20068;-69
2022/01/04 07:21:02;;;;;;;7.70;3.22;;;9.70;99.90;;;8.99;100.00;100018.72;4161246;28;20523;-69
2022/01/04 07:23:03;;;;;;;9.90;3.25;;;9.60;99.90;;;9.12;100.00;100011.16;4151093;28;20025;-69
2022/01/04 07:25:06;;;;;;;11.93;3.42;;;9.60;99.90;;;9.04;100.00;100000.66;4149832;28;20036;-69
2022/01/04 07:27:07;;;;;;;7.35;3.42;;;9.60;99.90;;;9.02;100.00;99986.81;4158062;28;20467;-69
2022/01/04 07:29:08;;;;;;;8.23;3.60;;;9.60;99.90;;;9.04;100.00;99995.38;4155646;28;20101;-69
2022/01/04 07:31:10;;;;;;;4.00;3.22;;;9.60;99.90;;;8.89;100.00;99986.50;4164741;28;20088;-69
2022/01/04 07:33:11;;;;;;;8.55;3.00;;;9.60;99.90;;;8.96;100.00;99976.16;4162121;28;20052;-69
2022/01/04 07:35:12;;;;;;;12.05;4.10;;;9.60;99.90;;;8.99;100.00;99979.25;4150863;28;20116;-69
2022/01/04 07:37:14;;;;;;;5.22;2.92;;;9.70;99.90;;;8.97;100.00;99970.72;4162232;28;20079;-69
2022/01/04 07:39:15;;;;;;;6.50;2.85;;;9.60;99.90;;;9.14;100.00;99953.13;4150828;28;20030;-68
2022/01/04 07:41:16;;;;;;;7.72;3.63;;;9.70;99.90;;;9.15;100.00;99942.41;4156068;28;20623;-69
2022/01/04 07:43:17;;;;;;;6.93;2.83;;;9.70;99.90;;;9.15;100.00;99946.84;4157673;28;20052;-69
2022/01/04 07:45:18;;;;;;;9.50;3.72;;;9.70;99.90;;;9.15;100.00;99941.59;4149492;28;20517;-69
2022/01/04 07:47:18;;;;;;;10.13;3.15;;;9.70;99.90;;;8.98;100.00;99943.44;4165425;28;20036;-69
2022/01/04 07:49:20;;;;;;;8.25;3.28;;;9.70;99.90;;;9.06;100.00;99942.59;4149934;28;20080;-69
2022/01/04 07:51:20;;;;;;;6.68;3.70;;;9.70;99.90;;;9.13;100.00;99948.84;4156989;28;20038;-69
2022/01/04 07:53:22;;;;;;;5.13;2.78;;;9.60;99.90;;;9.04;100.00;99936.69;4156338;28;20032;-69
2022/01/04 07:55:23;;;;;;;6.65;2.80;;;9.70;99.90;;;9.04;100.00;99944.56;4168325;28;20037;-68
2022/01/04 07:57:24;;;;;;;10.18;4.82;;;9.60;99.90;;;9.16;100.00;99943.25;4154265;28;20400;-67
2022/01/04 07:59:29;;;;;;;9.20;3.05;;;9.60;99.90;;;8.92;100.00;99959.88;4168501;28;20030;-68
2022/01/04 08:01:31;;;;;;;6.10;3.08;;;9.50;99.90;;;8.86;100.00;99956.09;4160905;28;20504;-68
2022/01/04 08:03:32;;;;;;;8.10;3.22;;;9.40;99.90;;;8.97;100.00;99947.03;4154114;28;20500;-68
2022/01/04 08:05:33;;;;;;;7.25;3.47;;;9.50;99.90;;;8.79;100.00;99962.16;4154053;28;20065;-68
2022/01/04 08:07:34;;;;;;;6.97;3.53;;;9.50;99.90;;;8.82;100.00;99965.28;4158944;28;20116;-68
2022/01/04 08:09:35;;;;;;;10.13;3.22;;;9.40;99.90;;;8.76;100.00;99960.69;4169404;28;20095;-68
2022/01/04 08:11:36;;;;;;;7.68;3.33;;;9.40;99.90;;;8.77;100.00;99967.59;4169304;28;20065;-68
2022/01/04 08:13:37;;;;;;;9.02;3.97;;;9.40;99.90;;;8.79;100.00;99978.75;4155875;28;20037;-68
2022/01/04 08:15:38;;;;;;;12.60;3.63;;;9.30;99.90;;;8.76;100.00;99975.63;4170349;28;20036;-68
2022/01/04 08:17:40;;;;;;;5.78;3.28;;;9.30;99.90;;;8.90;100.00;99994.22;4159160;28;20022;-68
2022/01/04 08:19:41;;;;;;;9.98;4.22;;;9.30;99.90;;;8.72;100.00;99996.16;4167040;28;20068;-68
2022/01/04 08:21:42;;;;;;;10.55;4.25;;;9.40;99.90;;;8.70;100.00;100003.41;4166911;28;20017;-68
2022/01/04 08:23:43;;;;;;;15.25;4.55;;;9.30;99.90;;;8.71;100.00;100002.41;4152331;28;20030;-68
2022/01/04 08:25:44;;;;;;;18.20;5.90;;;9.30;99.90;;;8.66;100.00;100002.06;4163708;28;20036;-68
2022/01/04 08:27:45;;;;;;;12.38;5.05;;;9.30;99.90;;;8.65;100.00;99999.63;4169948;28;20087;-68
2022/01/04 08:29:46;;;;;;;14.15;4.90;;;9.30;99.90;;;8.76;100.00;99992.22;4170146;28;20029;-68
2022/01/04 08:31:47;;;;;;;10.18;4.60;;;9.40;99.90;;;8.73;100.00;99997.81;4170333;28;20036;-68
2022/01/04 08:33:48;;;;;;;16.80;3.83;;;9.40;99.90;;;8.78;100.00;100003.41;4170065;28;20412;-68
2022/01/04 08:35:49;;;;;;;9.02;3.70;;;9.40;99.90;;;8.80;100.00;100009.34;4169777;28;20040;-68
2022/01/04 08:37:50;;;;;;;11.32;3.72;;;9.40;99.90;;;8.87;100.00;100014.75;4169570;28;20117;-68
2022/01/04 08:39:50;;;;;;;12.32;3.85;;;9.40;99.90;;;8.73;100.00;100023.28;4169945;28;20083;-68